createdAt,value
2023-05-16T00:02:16.313Z,80.00
2023-05-16T00:04:42.968Z,79.00
2023-05-16T00:07:09.557Z,80.01
2023-05-16T00:09:36.110Z,79.32
2023-05-16T00:12:02.642Z,79.28
2023-05-16T00:14:29.814Z,78.04
2023-05-16T00:16:59.091Z,77.86
2023-05-16T00:19:26.758Z,79.25
2023-05-16T00:21:53.330Z,78.47
2023-05-16T00:24:19.824Z,78.01
2023-05-16T00:26:46.279Z,78.08
2023-05-16T00:29:12.856Z,76.97
2023-05-16T00:31:39.371Z,78.51
2023-05-16T00:34:05.961Z,77.33
2023-05-16T00:36:33.044Z,77.22
2023-05-16T00:38:59.514Z,77.41
2023-05-16T00:41:26.266Z,76.42
2023-05-16T00:43:53.038Z,77.12
2023-05-16T00:46:19.565Z,76.09
2023-05-16T00:48:46.367Z,77.67
2023-05-16T00:51:12.912Z,77.32
2023-05-16T00:53:39.636Z,76.19
2023-05-16T00:56:06.959Z,77.88
2023-05-16T00:58:33.986Z,78.04
2023-05-16T01:01:03.742Z,75.99
2023-05-16T01:03:30.825Z,78.71
2023-05-16T01:05:58.190Z,77.70
2023-05-16T01:08:24.691Z,79.69
2023-05-16T01:11:00.755Z,78.12
2023-05-16T01:13:32.693Z,78.02
2023-05-16T01:16:11.158Z,79.56
2023-05-16T01:18:52.582Z,78.86
2023-05-16T01:21:32.020Z,78.38
2023-05-16T01:24:14.038Z,77.26
2023-05-16T01:26:41.409Z,77.85
2023-05-16T01:29:08.266Z,77.48
2023-05-16T01:31:34.820Z,77.95
2023-05-16T01:34:01.744Z,77.12
2023-05-16T01:36:43.964Z,78.13
2023-05-16T01:39:26.067Z,77.28
2023-05-16T01:42:03.668Z,78.44
2023-05-16T01:44:50.975Z,77.64
2023-05-16T01:47:19.762Z,76.46
2023-05-16T01:50:08.447Z,77.22
2023-05-16T01:52:44.200Z,75.53
2023-05-16T01:55:14.643Z,75.99
2023-05-16T01:57:42.489Z,76.37
2023-05-16T02:00:09.410Z,75.16
2023-05-16T02:02:36.117Z,74.84
2023-05-16T02:05:02.585Z,75.39
2023-05-16T02:07:29.074Z,75.37
2023-05-16T02:09:55.563Z,76.23
2023-05-16T02:12:22.134Z,74.82
2023-05-16T02:14:48.637Z,75.11
2023-05-16T02:17:15.110Z,74.53
2023-05-16T02:19:41.541Z,74.05
2023-05-16T02:22:08.025Z,74.36
2023-05-16T02:24:34.810Z,74.14
2023-05-16T02:27:01.804Z,74.98
2023-05-16T02:29:28.262Z,73.68
2023-05-16T02:31:54.850Z,74.51
2023-05-16T02:34:21.367Z,74.16
2023-05-16T02:36:47.858Z,73.92
2023-05-16T02:39:14.733Z,73.96
2023-05-16T02:41:41.746Z,73.88
2023-05-16T02:44:08.296Z,73.60
2023-05-16T02:46:35.015Z,74.14
2023-05-16T02:49:02.144Z,73.17
2023-05-16T02:51:28.816Z,73.21
2023-05-16T02:54:00.065Z,73.56
2023-05-16T02:56:26.644Z,74.55
2023-05-16T02:58:54.509Z,73.38
2023-05-16T03:01:21.200Z,74.19
2023-05-16T03:03:47.921Z,72.68
2023-05-16T03:06:14.510Z,73.43
2023-05-16T03:08:41.591Z,73.55
2023-05-16T03:11:08.074Z,73.60
2023-05-16T03:13:34.598Z,73.29
2023-05-16T03:16:01.524Z,73.91
2023-05-16T03:18:28.133Z,73.45
2023-05-16T03:20:54.938Z,72.56
2023-05-16T03:23:21.526Z,74.88
2023-05-16T03:25:48.295Z,73.70
2023-05-16T03:28:16.653Z,74.12
2023-05-16T03:30:43.237Z,74.25
2023-05-16T03:33:09.769Z,74.26
2023-05-16T03:35:36.601Z,74.08
2023-05-16T03:38:03.258Z,74.42
2023-05-16T03:40:29.791Z,72.76
2023-05-16T03:42:56.274Z,74.64
2023-05-16T03:45:22.717Z,73.64
2023-05-16T03:47:49.908Z,73.76
2023-05-16T03:50:16.808Z,71.73
2023-05-16T03:52:44.006Z,73.20
2023-05-16T03:55:10.691Z,74.04
2023-05-16T03:57:38.489Z,72.77
2023-05-16T04:00:08.185Z,73.14
2023-05-16T04:02:34.833Z,72.83
2023-05-16T04:05:01.409Z,74.75
2023-05-16T04:07:28.338Z,75.42
2023-05-16T04:09:56.049Z,75.15
2023-05-16T04:12:23.154Z,75.18
2023-05-16T04:14:49.752Z,76.10
2023-05-16T04:17:16.284Z,75.71
2023-05-16T04:19:42.778Z,76.03
2023-05-16T04:22:09.221Z,75.91
2023-05-16T04:24:35.912Z,77.76
2023-05-16T04:27:02.429Z,79.15
2023-05-16T04:29:29.231Z,76.76
2023-05-16T04:31:55.952Z,75.70
2023-05-16T04:34:23.356Z,75.32
2023-05-16T04:36:49.826Z,74.26
2023-05-16T04:39:16.300Z,73.50
2023-05-16T04:41:42.756Z,74.55
2023-05-16T04:44:11.165Z,73.78
2023-05-16T04:46:37.741Z,73.80
2023-05-16T04:49:04.614Z,72.48
2023-05-16T04:51:32.693Z,71.55
2023-05-16T04:53:59.536Z,71.10
2023-05-16T04:56:27.044Z,71.98
2023-05-16T04:58:54.655Z,71.34
2023-05-16T05:01:21.454Z,70.49
2023-05-16T05:03:48.554Z,68.48
2023-05-16T05:06:15.088Z,68.85
2023-05-16T05:08:41.546Z,69.58
2023-05-16T05:11:08.028Z,70.05
2023-05-16T05:13:34.507Z,69.43
2023-05-16T05:16:04.723Z,70.85
2023-05-16T05:18:31.425Z,69.72
2023-05-16T05:20:58.229Z,69.64
2023-05-16T05:23:24.819Z,69.16
2023-05-16T05:25:51.363Z,68.56
2023-05-16T05:28:18.060Z,67.83
2023-05-16T05:30:44.528Z,67.52
2023-05-16T05:33:11.850Z,65.21
2023-05-16T05:35:38.534Z,65.03
2023-05-16T05:38:04.991Z,64.42
2023-05-16T05:40:31.481Z,62.75
2023-05-16T05:42:57.936Z,64.56
2023-05-16T05:45:24.416Z,65.08
2023-05-16T05:47:51.135Z,66.11
2023-05-16T05:50:17.744Z,65.34
2023-05-16T05:52:44.301Z,64.62
2023-05-16T05:55:10.886Z,65.32
2023-05-16T05:57:37.915Z,66.10
2023-05-16T06:00:05.320Z,65.56
2023-05-16T06:02:31.936Z,66.13
2023-05-16T06:04:58.489Z,66.23
2023-05-16T06:07:25.027Z,68.25
2023-05-16T06:09:52.163Z,66.43
2023-05-16T06:12:18.616Z,66.66
2023-05-16T06:14:45.137Z,65.88
2023-05-16T06:17:11.661Z,66.95
2023-05-16T06:19:38.214Z,66.10
2023-05-16T06:22:04.822Z,66.51
2023-05-16T06:24:31.613Z,66.57
2023-05-16T06:26:58.190Z,66.54
2023-05-16T06:29:24.674Z,65.96
2023-05-16T06:31:51.223Z,65.87
2023-05-16T06:34:17.770Z,65.19
2023-05-16T06:36:44.659Z,64.74
2023-05-16T06:39:12.224Z,64.39
2023-05-16T06:41:38.697Z,63.74
2023-05-16T06:44:05.257Z,64.19
2023-05-16T06:46:32.850Z,64.59
2023-05-16T06:48:59.553Z,63.78
2023-05-16T06:51:26.034Z,63.19
2023-05-16T06:53:52.552Z,62.42
2023-05-16T06:56:19.049Z,61.87
2023-05-16T06:58:45.941Z,61.09
2023-05-16T07:01:12.509Z,60.91
2023-05-16T07:03:39.882Z,61.00
2023-05-16T07:06:06.560Z,59.38
2023-05-16T07:08:33.341Z,58.04
2023-05-16T07:10:59.833Z,57.43
2023-05-16T07:13:26.575Z,56.98
2023-05-16T07:15:53.139Z,59.51
2023-05-16T07:18:19.930Z,58.51
2023-05-16T07:20:46.767Z,56.79
2023-05-16T07:23:13.261Z,55.52
2023-05-16T07:25:39.969Z,54.59
2023-05-16T07:28:06.522Z,53.10
2023-05-16T07:30:33.071Z,54.58
2023-05-16T07:32:59.577Z,54.32
2023-05-16T07:35:26.364Z,53.59
2023-05-16T07:37:53.264Z,53.64
2023-05-16T07:40:21.323Z,54.27
2023-05-16T07:42:47.788Z,54.45
2023-05-16T07:45:14.382Z,52.75
2023-05-16T07:47:41.030Z,53.28
2023-05-16T07:50:07.892Z,53.63
2023-05-16T07:52:34.827Z,54.47
2023-05-16T07:55:01.439Z,53.22
2023-05-16T07:57:27.988Z,51.59
2023-05-16T07:59:55.030Z,53.56
2023-05-16T08:02:24.726Z,55.59
2023-05-16T08:04:51.443Z,53.96
2023-05-16T08:07:17.948Z,52.76
2023-05-16T08:09:44.439Z,50.98
2023-05-16T08:12:10.957Z,52.27
2023-05-16T08:14:37.476Z,48.74
2023-05-16T08:17:04.593Z,48.39
2023-05-16T08:19:32.863Z,49.24
2023-05-16T08:21:59.368Z,51.40
2023-05-16T08:24:25.872Z,51.07
2023-05-16T08:26:52.332Z,50.44
2023-05-16T08:29:18.840Z,50.53
2023-05-16T08:31:45.454Z,48.64
2023-05-16T08:34:12.018Z,51.34
2023-05-16T08:36:39.044Z,50.33
2023-05-16T08:39:06.187Z,48.36
2023-05-16T08:41:32.796Z,46.15
2023-05-16T08:43:59.379Z,45.82
2023-05-16T08:46:26.519Z,47.23
2023-05-16T08:48:53.944Z,49.07
2023-05-16T08:51:21.387Z,51.50
2023-05-16T08:53:54.815Z,53.44
2023-05-16T08:56:22.352Z,55.96
2023-05-16T08:58:50.588Z,56.79
2023-05-16T09:01:17.392Z,55.44
2023-05-16T09:03:44.213Z,55.53
2023-05-16T09:06:10.931Z,52.93
2023-05-16T09:08:37.428Z,50.93
2023-05-16T09:11:04.086Z,50.75
2023-05-16T09:13:30.573Z,48.44
2023-05-16T09:16:12.805Z,47.44
2023-05-16T09:18:40.641Z,46.76
2023-05-16T09:21:10.148Z,45.31
2023-05-16T09:23:37.469Z,46.57
2023-05-16T09:26:08.189Z,46.85
2023-05-16T09:28:37.777Z,49.40
2023-05-16T09:31:04.379Z,54.30
2023-05-16T09:33:31.056Z,56.00
2023-05-16T09:35:58.398Z,55.99
2023-05-16T09:38:26.547Z,55.44
2023-05-16T09:40:56.481Z,56.41
2023-05-16T09:43:27.090Z,54.27
2023-05-16T09:45:53.815Z,52.25
2023-05-16T09:48:21.515Z,51.42
2023-05-16T09:50:53.529Z,50.39
2023-05-16T09:53:27.726Z,51.02
2023-05-16T09:56:21.527Z,53.51
2023-05-16T09:58:48.036Z,55.07
2023-05-16T10:01:14.563Z,55.42
2023-05-16T10:03:42.673Z,53.36
2023-05-16T10:06:09.666Z,50.53
2023-05-16T10:08:37.234Z,47.56
2023-05-16T10:11:06.824Z,46.04
2023-05-16T10:13:35.269Z,49.62
2023-05-16T10:16:08.550Z,51.42
2023-05-16T10:18:36.276Z,51.19
2023-05-16T10:21:08.285Z,54.70
2023-05-16T10:23:37.848Z,57.61
2023-05-16T10:26:06.143Z,54.52
2023-05-16T10:28:33.033Z,51.88
2023-05-16T10:31:01.484Z,50.78
2023-05-16T10:33:28.665Z,51.66
2023-05-16T10:35:55.699Z,51.05
2023-05-16T10:38:24.021Z,47.31
2023-05-16T10:40:53.388Z,46.26
2023-05-16T10:43:25.985Z,46.40
2023-05-16T10:45:57.515Z,47.49
2023-05-16T10:48:31.167Z,48.71
2023-05-16T10:50:57.711Z,49.45
2023-05-16T10:53:34.001Z,51.78
2023-05-16T10:56:00.846Z,58.57
2023-05-16T10:58:33.349Z,67.88
2023-05-16T11:01:19.797Z,69.82
2023-05-16T11:04:04.835Z,70.28
2023-05-16T11:06:32.788Z,71.09
2023-05-16T11:09:11.434Z,69.31
2023-05-16T11:11:46.340Z,66.48
2023-05-16T11:14:23.476Z,69.56
2023-05-16T11:17:08.454Z,71.88
2023-05-16T11:19:55.302Z,70.44
2023-05-16T11:22:34.380Z,69.44
2023-05-16T11:25:05.625Z,73.26
2023-05-16T11:27:33.525Z,73.56
2023-05-16T11:30:21.926Z,75.79
2023-05-16T11:32:49.162Z,75.97
2023-05-16T11:35:17.893Z,73.93
2023-05-16T11:37:45.626Z,72.42
2023-05-16T11:40:13.697Z,71.79
2023-05-16T11:42:44.102Z,70.14
2023-05-16T11:45:22.426Z,70.94
2023-05-16T11:47:49.392Z,72.20
2023-05-16T11:50:18.114Z,73.71
2023-05-16T11:52:50.374Z,76.45
2023-05-16T11:55:28.320Z,78.43
2023-05-16T11:57:59.813Z,78.92
2023-05-16T12:00:27.450Z,79.16
2023-05-16T12:02:55.566Z,79.44
2023-05-16T12:05:27.407Z,78.90
2023-05-16T12:07:54.710Z,78.81
2023-05-16T12:10:21.439Z,79.66
2023-05-16T12:12:49.959Z,77.44
2023-05-16T12:15:16.502Z,77.18
2023-05-16T12:17:43.161Z,77.99
2023-05-16T12:20:14.657Z,76.19
2023-05-16T12:22:43.110Z,74.84
2023-05-16T12:25:32.539Z,73.94
2023-05-16T12:28:01.060Z,71.68
2023-05-16T12:30:28.758Z,68.32
2023-05-16T12:32:59.340Z,68.14
2023-05-16T12:35:26.935Z,67.07
2023-05-16T12:37:53.536Z,64.66
2023-05-16T12:40:20.783Z,63.66
2023-05-16T12:42:52.020Z,62.43
2023-05-16T12:45:18.720Z,62.43
2023-05-16T12:47:46.209Z,61.52
2023-05-16T12:50:17.619Z,61.09
2023-05-16T12:52:51.614Z,60.95
2023-05-16T12:55:18.988Z,61.01
2023-05-16T12:57:47.840Z,64.13
2023-05-16T13:00:16.383Z,60.10
2023-05-16T13:02:42.999Z,60.61
2023-05-16T13:05:10.372Z,63.44
2023-05-16T13:07:37.506Z,58.58
2023-05-16T13:10:04.473Z,57.75
2023-05-16T13:12:31.153Z,60.03
2023-05-16T13:14:57.839Z,61.44
2023-05-16T13:17:24.430Z,59.15
2023-05-16T13:19:51.584Z,62.18
2023-05-16T13:22:18.113Z,62.56
2023-05-16T13:24:46.666Z,64.44
2023-05-16T13:27:16.826Z,61.40
2023-05-16T13:29:43.440Z,59.24
2023-05-16T13:32:10.139Z,53.26
2023-05-16T13:34:36.722Z,54.17
2023-05-16T13:37:03.878Z,54.27
2023-05-16T13:39:30.786Z,55.43
2023-05-16T13:41:57.295Z,55.99
2023-05-16T13:44:23.902Z,57.01
2023-05-16T13:46:50.748Z,56.79
2023-05-16T13:49:17.411Z,57.68
2023-05-16T13:51:44.262Z,58.32
2023-05-16T13:54:10.882Z,57.75
2023-05-16T13:56:37.388Z,58.23
2023-05-16T13:59:06.814Z,54.87
2023-05-16T14:01:34.316Z,56.26
2023-05-16T14:04:00.912Z,56.99
2023-05-16T14:06:27.501Z,55.39
2023-05-16T14:08:54.293Z,57.20
2023-05-16T14:11:23.146Z,56.86
2023-05-16T14:13:49.667Z,55.71
2023-05-16T14:16:17.305Z,56.89
2023-05-16T14:18:43.872Z,60.13
2023-05-16T14:21:10.454Z,62.48
2023-05-16T14:23:37.071Z,64.21
2023-05-16T14:26:06.926Z,65.41
2023-05-16T14:28:34.190Z,63.35
2023-05-16T14:31:01.314Z,60.77
2023-05-16T14:33:27.810Z,58.56
2023-05-16T14:35:54.469Z,57.74
2023-05-16T14:38:21.184Z,57.14
2023-05-16T14:40:47.687Z,55.77
2023-05-16T14:43:14.151Z,57.00
2023-05-16T14:45:40.685Z,56.73
2023-05-16T14:48:08.475Z,56.67
2023-05-16T14:50:35.362Z,56.66
2023-05-16T14:53:01.883Z,55.96
2023-05-16T14:55:28.675Z,55.92
2023-05-16T14:57:59.439Z,55.05
2023-05-16T15:00:26.972Z,55.19
2023-05-16T15:02:53.827Z,54.36
2023-05-16T15:05:20.559Z,53.90
2023-05-16T15:07:47.190Z,55.74
2023-05-16T15:10:13.928Z,58.65
2023-05-16T15:12:41.125Z,65.34
2023-05-16T15:15:12.213Z,72.06
2023-05-16T15:17:41.603Z,79.54
2023-05-16T15:20:10.830Z,81.34
2023-05-16T15:22:38.467Z,83.11
2023-05-16T15:25:05.870Z,85.51
2023-05-16T15:27:32.815Z,84.61
2023-05-16T15:29:59.984Z,80.52
2023-05-16T15:32:26.862Z,82.22
2023-05-16T15:34:53.578Z,83.24
2023-05-16T15:37:20.864Z,81.80
2023-05-16T15:39:47.677Z,80.97
2023-05-16T15:42:14.679Z,81.45
2023-05-16T15:44:41.350Z,84.29
2023-05-16T15:47:08.781Z,85.74
2023-05-16T15:49:35.330Z,85.94
2023-05-16T15:52:02.017Z,84.91
2023-05-16T15:54:29.248Z,84.41
2023-05-16T15:56:55.789Z,82.52
2023-05-16T15:59:22.255Z,82.84
2023-05-16T16:01:48.791Z,82.33
2023-05-16T16:04:15.454Z,81.21
2023-05-16T16:06:42.025Z,79.86
2023-05-16T16:09:09.546Z,78.87
2023-05-16T16:11:36.198Z,77.40
2023-05-16T16:14:02.811Z,76.91
2023-05-16T16:16:29.318Z,79.57
2023-05-16T16:18:55.928Z,79.24
2023-05-16T16:21:23.822Z,77.54
2023-05-16T16:23:50.308Z,78.44
2023-05-16T16:26:17.412Z,79.10
2023-05-16T16:28:43.917Z,81.87
2023-05-16T16:31:10.969Z,80.41
2023-05-16T16:33:37.464Z,80.47
2023-05-16T16:36:04.295Z,80.91
2023-05-16T16:38:30.850Z,80.78
2023-05-16T16:40:57.372Z,80.57
2023-05-16T16:43:23.842Z,81.26
2023-05-16T16:45:50.676Z,80.35
2023-05-16T16:48:17.167Z,82.32
2023-05-16T16:50:44.116Z,82.36
2023-05-16T16:53:11.482Z,82.71
2023-05-16T16:55:40.700Z,82.51
2023-05-16T16:58:07.697Z,84.06
2023-05-16T17:00:34.297Z,83.23
2023-05-16T17:03:01.134Z,84.29
2023-05-16T17:05:28.152Z,85.31
2023-05-16T17:07:54.877Z,83.17
2023-05-16T17:10:21.723Z,82.35
2023-05-16T17:12:50.150Z,82.77
2023-05-16T17:15:19.496Z,82.86
2023-05-16T17:17:46.670Z,83.68
2023-05-16T17:20:13.391Z,84.38
2023-05-16T17:22:40.774Z,85.43
2023-05-16T17:25:08.049Z,84.55
2023-05-16T17:27:34.552Z,85.54
2023-05-16T17:30:02.754Z,85.29
2023-05-16T17:32:33.235Z,87.33
2023-05-16T17:35:03.680Z,87.01
2023-05-16T17:37:30.717Z,87.80
2023-05-16T17:39:57.622Z,88.45
2023-05-16T17:42:24.259Z,85.95
2023-05-16T17:44:51.051Z,87.99
2023-05-16T17:47:20.027Z,88.20
2023-05-16T17:49:47.256Z,87.41
2023-05-16T17:52:14.692Z,87.14
2023-05-16T17:54:41.403Z,86.19
2023-05-16T17:57:08.892Z,88.85
2023-05-16T17:59:35.445Z,87.41
2023-05-16T18:02:01.984Z,87.12
2023-05-16T18:04:28.520Z,87.20
2023-05-16T18:06:56.238Z,87.00
2023-05-16T18:09:22.789Z,88.02
2023-05-16T18:11:50.011Z,89.58
2023-05-16T18:14:17.192Z,88.74
2023-05-16T18:16:44.230Z,86.85
2023-05-16T18:19:11.004Z,89.62
2023-05-16T18:21:38.298Z,89.18
2023-05-16T18:24:08.048Z,88.41
2023-05-16T18:26:34.741Z,88.20
2023-05-16T18:29:02.171Z,87.58
2023-05-16T18:31:30.529Z,87.69
2023-05-16T18:33:57.583Z,86.32
2023-05-16T18:36:24.083Z,87.52
2023-05-16T18:38:50.755Z,87.96
2023-05-16T18:41:17.349Z,88.01
2023-05-16T18:43:43.899Z,86.99
2023-05-16T18:46:10.352Z,86.08
2023-05-16T18:48:36.887Z,87.16
2023-05-16T18:51:03.595Z,87.52
2023-05-16T18:53:30.151Z,85.64
2023-05-16T18:55:56.730Z,85.70
2023-05-16T18:58:23.315Z,85.25
2023-05-16T19:00:49.930Z,85.76
2023-05-16T19:03:17.230Z,85.11
2023-05-16T19:05:44.010Z,84.51
2023-05-16T19:08:10.783Z,83.95
2023-05-16T19:10:38.549Z,83.42
2023-05-16T19:13:08.781Z,85.33
2023-05-16T19:15:36.218Z,84.95
2023-05-16T19:18:04.840Z,85.12
2023-05-16T19:20:32.993Z,83.21
2023-05-16T19:22:59.484Z,84.70
2023-05-16T19:25:26.543Z,83.21
2023-05-16T19:27:53.280Z,81.56
2023-05-16T19:30:20.011Z,83.21
2023-05-16T19:32:46.533Z,84.23
2023-05-16T19:35:13.090Z,84.32
2023-05-16T19:37:39.645Z,85.23
2023-05-16T19:40:06.871Z,83.79
2023-05-16T19:42:33.362Z,84.68
2023-05-16T19:44:59.959Z,83.70
2023-05-16T19:47:26.549Z,85.87
2023-05-16T19:49:53.117Z,86.04
2023-05-16T19:52:19.607Z,86.60
2023-05-16T19:54:46.294Z,84.87
2023-05-16T19:57:12.760Z,86.41
2023-05-16T19:59:39.267Z,86.38
2023-05-16T20:02:05.752Z,86.88
2023-05-16T20:04:32.320Z,88.27
2023-05-16T20:06:58.961Z,88.17
2023-05-16T20:09:26.535Z,88.06
2023-05-16T20:11:53.908Z,86.15
2023-05-16T20:14:21.173Z,87.40
2023-05-16T20:16:47.688Z,85.61
2023-05-16T20:19:15.373Z,86.55
2023-05-16T20:21:41.986Z,86.80
2023-05-16T20:24:08.608Z,84.79
2023-05-16T20:26:35.191Z,86.08
2023-05-16T20:29:01.719Z,86.84
2023-05-16T20:31:28.213Z,85.40
2023-05-16T20:33:54.852Z,84.24
2023-05-16T20:36:25.366Z,85.57
2023-05-16T20:38:52.885Z,86.09
2023-05-16T20:41:19.679Z,84.82
2023-05-16T20:43:46.919Z,85.43
2023-05-16T20:46:13.512Z,86.00
2023-05-16T20:48:40.132Z,85.02
2023-05-16T20:51:06.957Z,85.00
2023-05-16T20:53:33.670Z,84.07
2023-05-16T20:56:00.207Z,84.73
2023-05-16T20:58:26.752Z,87.04
2023-05-16T21:00:53.271Z,85.21
2023-05-16T21:03:19.803Z,85.27
2023-05-16T21:05:46.418Z,84.38
2023-05-16T21:08:12.948Z,84.46
2023-05-16T21:10:39.523Z,86.36
2023-05-16T21:13:06.220Z,85.88
2023-05-16T21:15:32.781Z,84.95
2023-05-16T21:17:59.597Z,85.77
2023-05-16T21:20:28.687Z,85.00
2023-05-16T21:22:55.666Z,84.93
2023-05-16T21:25:22.256Z,87.20
2023-05-16T21:27:48.860Z,86.83
2023-05-16T21:30:15.533Z,85.83
2023-05-16T21:32:42.041Z,86.64
2023-05-16T21:35:09.031Z,86.35
2023-05-16T21:37:35.560Z,85.71
2023-05-16T21:40:02.179Z,86.80
2023-05-16T21:42:28.680Z,86.63
2023-05-16T21:44:55.181Z,88.89
2023-05-16T21:47:21.659Z,88.88
2023-05-16T21:49:48.162Z,87.71
2023-05-16T21:52:16.369Z,87.62
2023-05-16T21:54:43.024Z,88.21
2023-05-16T21:57:09.504Z,88.29
2023-05-16T21:59:36.095Z,90.72
2023-05-16T22:02:02.583Z,89.80
2023-05-16T22:04:29.081Z,91.47
2023-05-16T22:06:55.540Z,90.28
2023-05-16T22:09:22.058Z,91.86
2023-05-16T22:11:48.538Z,92.22
2023-05-16T22:14:15.086Z,91.21
2023-05-16T22:16:41.587Z,90.32
2023-05-16T22:19:08.996Z,90.35
2023-05-16T22:21:36.154Z,91.10
2023-05-16T22:24:03.144Z,91.54
2023-05-16T22:26:29.742Z,90.48
2023-05-16T22:28:56.269Z,90.30
2023-05-16T22:31:22.796Z,89.96
2023-05-16T22:33:49.310Z,90.28
2023-05-16T22:36:15.882Z,90.71
2023-05-16T22:38:42.391Z,90.64
2023-05-16T22:41:08.932Z,90.40
2023-05-16T22:43:35.411Z,90.96
2023-05-16T22:46:03.319Z,89.84
2023-05-16T22:48:30.109Z,88.06
2023-05-16T22:50:57.694Z,89.29
2023-05-16T22:53:24.319Z,88.46
2023-05-16T22:55:50.962Z,88.08
2023-05-16T22:58:17.891Z,88.42
2023-05-16T23:00:44.483Z,88.13
2023-05-16T23:03:11.125Z,86.77
2023-05-16T23:05:37.730Z,86.05
2023-05-16T23:08:04.481Z,86.28
2023-05-16T23:10:31.515Z,85.00
2023-05-16T23:12:58.081Z,85.20
2023-05-16T23:15:24.585Z,84.58
2023-05-16T23:17:53.782Z,83.81
2023-05-16T23:20:20.691Z,84.12
2023-05-16T23:22:47.252Z,84.23
2023-05-16T23:25:13.737Z,83.26
2023-05-16T23:27:40.201Z,83.39
2023-05-16T23:30:09.113Z,84.47
2023-05-16T23:32:35.629Z,84.44
2023-05-16T23:35:02.362Z,83.15
2023-05-16T23:37:28.971Z,83.22
2023-05-16T23:39:55.911Z,83.77
2023-05-16T23:42:22.589Z,82.66
2023-05-16T23:44:49.155Z,83.52
2023-05-16T23:47:15.666Z,83.34
2023-05-16T23:49:42.209Z,83.91
2023-05-16T23:52:08.794Z,84.31
2023-05-16T23:54:35.478Z,84.33
2023-05-16T23:57:02.240Z,84.12
2023-05-16T23:59:28.764Z,84.27
